createdAt,value
2023-04-25T00:00:22.466Z,43.90
2023-04-25T00:02:49.606Z,43.90
2023-04-25T00:05:17.152Z,43.90
2023-04-25T00:07:44.152Z,43.80
2023-04-25T00:10:12.729Z,43.90
2023-04-25T00:12:40.166Z,43.80
2023-04-25T00:15:07.486Z,43.80
2023-04-25T00:17:35.928Z,43.80
2023-04-25T00:20:06.043Z,44.30
2023-04-25T00:22:34.604Z,44.40
2023-04-25T00:25:01.420Z,44.20
2023-04-25T00:27:28.108Z,44.30
2023-04-25T00:29:54.883Z,44.60
2023-04-25T00:32:21.716Z,44.60
2023-04-25T00:34:48.464Z,44.60
2023-04-25T00:37:15.486Z,45.00
2023-04-25T00:39:42.252Z,45.10
2023-04-25T00:42:09.494Z,44.90
2023-04-25T00:44:37.662Z,45.00
2023-04-25T00:47:04.667Z,45.10
2023-04-25T00:49:31.640Z,45.40
2023-04-25T00:51:58.390Z,45.50
2023-04-25T00:54:26.201Z,45.40
2023-04-25T00:56:53.492Z,45.20
2023-04-25T00:59:21.463Z,45.30
2023-04-25T01:01:48.384Z,45.10
2023-04-25T01:04:15.774Z,44.90
2023-04-25T01:06:42.903Z,45.40
2023-04-25T01:09:10.501Z,45.10
2023-04-25T01:11:37.292Z,45.30
2023-04-25T01:14:04.099Z,45.30
2023-04-25T01:16:31.522Z,45.60
2023-04-25T01:18:58.595Z,45.60
2023-04-25T01:21:28.150Z,45.80
2023-04-25T01:23:55.777Z,45.90
2023-04-25T01:26:23.432Z,45.60
2023-04-25T01:28:50.584Z,45.90
2023-04-25T01:31:19.093Z,46.00
2023-04-25T01:33:46.294Z,46.60
2023-04-25T01:36:14.099Z,46.50
2023-04-25T01:38:41.338Z,46.90
2023-04-25T01:41:08.330Z,46.80
2023-04-25T01:43:35.448Z,46.80
2023-04-25T01:46:02.594Z,47.00
2023-04-25T01:48:29.349Z,46.70
2023-04-25T01:50:56.063Z,46.90
2023-04-25T01:53:23.633Z,47.20
2023-04-25T01:55:50.407Z,47.60
2023-04-25T01:58:17.220Z,47.90
2023-04-25T02:00:44.000Z,47.90
2023-04-25T02:03:10.896Z,48.00
2023-04-25T02:05:38.897Z,47.90
2023-04-25T02:08:07.434Z,47.90
2023-04-25T02:10:35.267Z,48.10
2023-04-25T02:13:02.111Z,48.00
2023-04-25T02:15:28.876Z,48.10
2023-04-25T02:17:55.747Z,48.00
2023-04-25T02:20:23.534Z,48.00
2023-04-25T02:22:50.471Z,47.80
2023-04-25T02:25:17.834Z,47.80
2023-04-25T02:27:44.633Z,48.00
2023-04-25T02:30:11.624Z,47.90
2023-04-25T02:32:38.947Z,47.50
2023-04-25T02:35:06.736Z,47.80
2023-04-25T02:37:37.664Z,48.20
2023-04-25T02:40:05.260Z,48.00
2023-04-25T02:42:32.365Z,48.00
2023-04-25T02:44:59.223Z,48.00
2023-04-25T02:47:26.032Z,48.40
2023-04-25T02:49:52.824Z,48.30
2023-04-25T02:52:19.672Z,48.40
2023-04-25T02:54:46.434Z,48.40
2023-04-25T02:57:13.282Z,48.40
2023-04-25T02:59:40.048Z,48.60
2023-04-25T03:02:06.758Z,48.30
2023-04-25T03:04:34.512Z,48.70
2023-04-25T03:07:01.920Z,48.90
2023-04-25T03:09:28.649Z,48.70
2023-04-25T03:11:55.539Z,49.20
2023-04-25T03:14:22.219Z,50.40
2023-04-25T03:16:48.901Z,49.70
2023-04-25T03:19:17.998Z,50.50
2023-04-25T03:21:45.323Z,50.10
2023-04-25T03:24:12.886Z,50.20
2023-04-25T03:26:39.592Z,50.90
2023-04-25T03:29:06.351Z,51.00
2023-04-25T03:31:33.183Z,51.20
2023-04-25T03:33:59.945Z,51.60
2023-04-25T03:36:26.697Z,51.20
2023-04-25T03:38:53.470Z,51.30
2023-04-25T03:41:20.302Z,51.40
2023-04-25T03:43:47.027Z,51.40
2023-04-25T03:46:13.851Z,50.40
2023-04-25T03:48:40.556Z,50.40
2023-04-25T03:51:07.204Z,50.00
2023-04-25T03:53:33.926Z,50.20
2023-04-25T03:56:00.622Z,49.90
2023-04-25T03:58:27.403Z,50.40
2023-04-25T04:00:54.160Z,49.90
2023-04-25T04:03:21.561Z,49.60
2023-04-25T04:05:48.875Z,49.60
2023-04-25T04:08:16.060Z,50.10
2023-04-25T04:10:42.739Z,49.40
2023-04-25T04:13:09.507Z,49.60
2023-04-25T04:15:36.571Z,50.10
2023-04-25T04:18:03.573Z,50.40
2023-04-25T04:20:31.542Z,49.80
2023-04-25T04:22:58.295Z,50.30
2023-04-25T04:25:25.587Z,50.00
2023-04-25T04:27:55.601Z,50.50
2023-04-25T04:30:25.226Z,51.00
2023-04-25T04:32:52.947Z,51.40
2023-04-25T04:35:19.813Z,51.00
2023-04-25T04:37:46.846Z,51.00
2023-04-25T04:40:16.271Z,50.80
2023-04-25T04:42:44.192Z,50.60
2023-04-25T04:45:11.339Z,50.70
2023-04-25T04:47:38.445Z,50.70
2023-04-25T04:50:11.327Z,50.60
2023-04-25T04:52:38.929Z,50.20
2023-04-25T04:55:06.867Z,50.30
2023-04-25T04:57:33.924Z,49.90
2023-04-25T05:00:00.677Z,50.00
2023-04-25T05:02:27.860Z,50.10
2023-04-25T05:04:54.830Z,49.60
2023-04-25T05:07:22.020Z,49.40
2023-04-25T05:09:48.787Z,49.80
2023-04-25T05:12:15.583Z,49.70
2023-04-25T05:14:42.336Z,49.70
2023-04-25T05:17:09.571Z,49.70
2023-04-25T05:19:36.397Z,49.60
2023-04-25T05:22:03.929Z,49.40
2023-04-25T05:24:31.567Z,49.40
2023-04-25T05:26:58.629Z,49.40
2023-04-25T05:29:25.516Z,49.50
2023-04-25T05:31:52.447Z,49.70
2023-04-25T05:34:19.380Z,49.50
2023-04-25T05:36:49.306Z,49.30
2023-04-25T05:39:18.324Z,49.00
2023-04-25T05:41:45.161Z,49.20
2023-04-25T05:44:11.943Z,49.00
2023-04-25T05:46:38.938Z,48.10
2023-04-25T05:49:05.911Z,48.20
2023-04-25T05:51:32.720Z,49.10
2023-04-25T05:53:59.444Z,48.50
2023-04-25T05:56:26.575Z,47.90
2023-04-25T05:58:53.337Z,48.20
2023-04-25T06:01:20.101Z,48.60
2023-04-25T06:03:47.334Z,48.90
2023-04-25T06:06:14.327Z,49.40
2023-04-25T06:08:41.750Z,50.00
2023-04-25T06:11:08.427Z,48.20
2023-04-25T06:13:35.544Z,48.20
2023-04-25T06:16:02.259Z,48.90
2023-04-25T06:18:29.233Z,48.70
2023-04-25T06:20:56.018Z,48.90
2023-04-25T06:23:22.681Z,48.60
2023-04-25T06:25:49.363Z,49.30
2023-04-25T06:28:16.080Z,49.10
2023-04-25T06:30:42.860Z,48.90
2023-04-25T06:33:09.792Z,48.80
2023-04-25T06:35:36.804Z,49.10
2023-04-25T06:38:03.597Z,50.30
2023-04-25T06:40:30.577Z,49.40
2023-04-25T06:42:57.220Z,50.50
2023-04-25T06:45:23.888Z,50.50
2023-04-25T06:47:50.617Z,50.50
2023-04-25T06:50:17.416Z,50.60
2023-04-25T06:52:44.240Z,50.80
2023-04-25T06:55:11.106Z,50.60
2023-04-25T06:57:37.832Z,50.00
2023-04-25T07:00:09.373Z,50.20
2023-04-25T07:02:36.754Z,50.00
2023-04-25T07:05:05.097Z,50.10
2023-04-25T07:07:32.362Z,49.40
2023-04-25T07:09:59.097Z,49.50
2023-04-25T07:12:25.940Z,49.10
2023-04-25T07:14:52.680Z,49.00
2023-04-25T07:17:19.501Z,49.40
2023-04-25T07:19:46.185Z,49.10
2023-04-25T07:22:12.984Z,49.50
2023-04-25T07:24:39.999Z,48.80
2023-04-25T07:27:07.206Z,48.10
2023-04-25T07:29:36.737Z,47.40
2023-04-25T07:32:03.639Z,48.00
2023-04-25T07:34:31.384Z,47.90
2023-04-25T07:36:58.125Z,47.20
2023-04-25T07:39:24.895Z,48.10
2023-04-25T07:41:53.787Z,47.50
2023-04-25T07:44:21.779Z,48.30
2023-04-25T07:46:48.597Z,48.00
2023-04-25T07:49:15.756Z,48.00
2023-04-25T07:51:44.317Z,48.90
2023-04-25T07:54:13.332Z,47.50
2023-04-25T07:56:51.548Z,47.70
2023-04-25T07:59:20.395Z,47.50
2023-04-25T08:01:47.270Z,47.00
2023-04-25T08:04:14.248Z,47.30
2023-04-25T08:06:41.582Z,47.30
2023-04-25T08:09:10.233Z,45.50
2023-04-25T08:11:38.483Z,46.30
2023-04-25T08:14:06.019Z,46.30
2023-04-25T08:16:32.801Z,46.60
2023-04-25T08:19:01.028Z,46.70
2023-04-25T08:21:30.892Z,45.10
2023-04-25T08:23:59.552Z,44.00
2023-04-25T08:26:26.687Z,44.20
2023-04-25T08:28:53.727Z,44.10
2023-04-25T08:31:20.698Z,43.80
2023-04-25T08:33:47.823Z,43.20
2023-04-25T08:36:17.278Z,43.00
2023-04-25T08:38:48.646Z,42.90
2023-04-25T08:41:17.302Z,43.10
2023-04-25T08:43:46.939Z,42.60
2023-04-25T08:46:16.706Z,42.20
2023-04-25T08:48:45.460Z,41.90
2023-04-25T08:51:17.193Z,41.90
2023-04-25T08:53:46.291Z,41.10
2023-04-25T08:56:17.755Z,41.50
2023-04-25T08:58:46.902Z,40.50
2023-04-25T09:01:13.712Z,39.90
2023-04-25T09:03:40.662Z,40.00
2023-04-25T09:06:08.137Z,40.00
2023-04-25T09:08:34.885Z,39.80
2023-04-25T09:11:01.532Z,40.20
2023-04-25T09:13:29.507Z,40.00
2023-04-25T09:15:58.305Z,40.20
2023-04-25T09:18:33.580Z,39.10
2023-04-25T09:21:14.644Z,38.50
2023-04-25T09:23:45.609Z,38.60
2023-04-25T09:26:16.244Z,37.90
2023-04-25T09:28:44.107Z,38.50
2023-04-25T09:31:14.778Z,38.00
2023-04-25T09:33:42.072Z,38.00
2023-04-25T09:36:14.453Z,37.60
2023-04-25T09:38:48.084Z,37.10
2023-04-25T09:41:22.977Z,36.60
2023-04-25T09:43:51.967Z,36.50
2023-04-25T09:46:22.050Z,36.50
2023-04-25T09:48:52.263Z,36.10
2023-04-25T09:51:19.033Z,35.30
2023-04-25T09:53:50.951Z,35.90
2023-04-25T09:56:19.689Z,36.20
2023-04-25T09:58:49.021Z,36.20
2023-04-25T10:01:18.001Z,35.90
2023-04-25T10:03:48.285Z,36.00
2023-04-25T10:06:20.695Z,36.40
2023-04-25T10:08:52.285Z,35.50
2023-04-25T10:11:19.386Z,36.00
2023-04-25T10:13:47.019Z,36.00
2023-04-25T10:16:14.443Z,34.90
2023-04-25T10:18:41.733Z,33.50
2023-04-25T10:21:08.750Z,32.10
2023-04-25T10:23:38.276Z,32.20
2023-04-25T10:26:05.309Z,32.70
2023-04-25T10:28:58.892Z,32.40
2023-04-25T10:31:26.640Z,31.20
2023-04-25T10:33:54.983Z,31.80
2023-04-25T10:36:23.705Z,31.70
2023-04-25T10:38:51.884Z,31.10
2023-04-25T10:41:20.650Z,31.00
2023-04-25T10:43:49.255Z,30.80
2023-04-25T10:46:33.004Z,30.60
2023-04-25T10:49:01.695Z,30.80
2023-04-25T10:51:34.575Z,30.70
2023-04-25T10:54:10.570Z,31.00
2023-04-25T10:56:38.931Z,31.50
2023-04-25T10:59:13.991Z,31.90
2023-04-25T11:01:41.892Z,32.10
2023-04-25T11:04:31.358Z,32.50
2023-04-25T11:07:06.979Z,32.40
2023-04-25T11:09:36.446Z,31.80
2023-04-25T11:12:03.635Z,31.50
2023-04-25T11:14:30.620Z,32.40
2023-04-25T11:17:00.658Z,31.60
2023-04-25T11:19:29.227Z,32.00
2023-04-25T11:22:01.006Z,32.00
2023-04-25T11:24:31.528Z,33.30
2023-04-25T11:27:03.490Z,34.40
2023-04-25T11:29:31.701Z,35.30
2023-04-25T11:31:59.396Z,36.20
2023-04-25T11:34:26.977Z,37.00
2023-04-25T11:36:54.460Z,37.20
2023-04-25T11:39:21.641Z,37.50
2023-04-25T11:41:48.586Z,37.70
2023-04-25T11:44:20.074Z,37.90
2023-04-25T11:46:47.824Z,37.50
2023-04-25T11:49:15.928Z,37.70
2023-04-25T11:51:47.481Z,37.70
2023-04-25T11:54:14.829Z,37.90
2023-04-25T11:56:47.644Z,37.80
2023-04-25T11:59:15.557Z,37.60
2023-04-25T12:01:50.647Z,37.70
2023-04-25T12:04:25.923Z,37.30
2023-04-25T12:06:55.140Z,36.60
2023-04-25T12:09:29.954Z,36.20
2023-04-25T12:11:59.188Z,35.90
2023-04-25T12:14:28.208Z,35.50
2023-04-25T12:16:58.726Z,34.90
2023-04-25T12:19:26.913Z,33.50
2023-04-25T12:21:58.736Z,32.70
2023-04-25T12:24:29.494Z,31.50
2023-04-25T12:27:11.216Z,30.50
2023-04-25T12:29:49.480Z,30.60
2023-04-25T12:32:17.797Z,31.10
2023-04-25T12:34:44.855Z,30.50
2023-04-25T12:37:14.541Z,30.50
2023-04-25T12:39:41.420Z,30.80
2023-04-25T12:42:14.241Z,30.90
2023-04-25T12:44:42.157Z,30.90
2023-04-25T12:47:09.414Z,30.80
2023-04-25T12:49:36.446Z,29.60
2023-04-25T12:52:03.298Z,29.90
2023-04-25T12:54:30.058Z,30.70
2023-04-25T12:56:57.370Z,29.80
2023-04-25T12:59:24.393Z,30.00
2023-04-25T13:01:51.186Z,30.20
2023-04-25T13:04:18.801Z,30.10
2023-04-25T13:06:45.848Z,30.00
2023-04-25T13:09:13.496Z,29.90
2023-04-25T13:11:41.633Z,30.00
2023-04-25T13:14:08.826Z,30.20
2023-04-25T13:16:35.829Z,31.20
2023-04-25T13:19:02.663Z,31.00
2023-04-25T13:21:33.204Z,30.80
2023-04-25T13:24:00.235Z,30.70
2023-04-25T13:26:27.160Z,30.50
2023-04-25T13:28:53.970Z,30.70
2023-04-25T13:31:20.782Z,30.60
2023-04-25T13:33:47.542Z,30.40
2023-04-25T13:36:14.528Z,30.40
2023-04-25T13:38:45.235Z,30.30
2023-04-25T13:41:16.698Z,30.90
2023-04-25T13:43:43.402Z,31.20
2023-04-25T13:46:24.888Z,31.50
2023-04-25T13:49:06.211Z,31.60
2023-04-25T13:51:38.620Z,31.10
2023-04-25T13:54:05.473Z,31.10
2023-04-25T13:56:32.147Z,31.50
2023-04-25T13:58:59.089Z,31.00
2023-04-25T14:01:26.018Z,31.80
2023-04-25T14:03:53.085Z,31.80
2023-04-25T14:06:23.822Z,32.00
2023-04-25T14:08:54.013Z,32.10
2023-04-25T14:11:21.130Z,32.30
2023-04-25T14:13:49.439Z,32.30
2023-04-25T14:16:17.698Z,32.10
2023-04-25T14:18:44.523Z,32.30
2023-04-25T14:21:11.746Z,32.10
2023-04-25T14:23:38.620Z,31.40
2023-04-25T14:26:06.132Z,31.50
2023-04-25T14:28:32.984Z,31.50
2023-04-25T14:30:59.830Z,31.60
2023-04-25T14:33:26.654Z,31.40
2023-04-25T14:35:53.973Z,30.50
2023-04-25T14:38:24.108Z,29.70
2023-04-25T14:40:51.102Z,30.10
2023-04-25T14:43:18.063Z,29.70
2023-04-25T14:45:44.913Z,29.60
2023-04-25T14:48:11.767Z,29.00
2023-04-25T14:50:38.450Z,29.80
2023-04-25T14:53:05.332Z,29.90
2023-04-25T14:55:32.193Z,29.30
2023-04-25T14:58:00.128Z,29.10
2023-04-25T15:00:27.648Z,29.50
2023-04-25T15:02:54.583Z,29.40
2023-04-25T15:05:21.553Z,29.60
2023-04-25T15:07:48.890Z,29.50
2023-04-25T15:10:17.012Z,29.00
2023-04-25T15:12:46.325Z,28.80
2023-04-25T15:15:22.606Z,29.00
2023-04-25T15:17:53.572Z,29.30
2023-04-25T15:20:21.124Z,28.90
2023-04-25T15:22:49.752Z,28.90
2023-04-25T15:25:20.530Z,28.40
2023-04-25T15:27:49.348Z,29.30
2023-04-25T15:30:17.557Z,30.00
2023-04-25T15:32:45.596Z,30.60
2023-04-25T15:35:12.702Z,31.10
2023-04-25T15:37:39.707Z,31.30
2023-04-25T15:40:17.548Z,31.40
2023-04-25T15:42:51.377Z,31.60
2023-04-25T15:45:20.030Z,31.40
2023-04-25T15:47:47.139Z,31.00
2023-04-25T15:50:17.820Z,31.40
2023-04-25T15:52:44.626Z,31.40
2023-04-25T15:55:12.976Z,31.10
2023-04-25T15:57:41.966Z,31.60
2023-04-25T16:00:13.322Z,29.80
2023-04-25T16:02:41.367Z,29.50
2023-04-25T16:05:09.406Z,28.80
2023-04-25T16:07:36.784Z,29.50
2023-04-25T16:10:04.053Z,29.20
2023-04-25T16:12:31.339Z,28.90
2023-04-25T16:14:58.220Z,29.20
2023-04-25T16:17:26.019Z,28.70
2023-04-25T16:19:52.718Z,28.70
2023-04-25T16:22:19.514Z,28.70
2023-04-25T16:24:46.326Z,28.70
2023-04-25T16:27:13.189Z,28.90
2023-04-25T16:29:39.901Z,28.90
2023-04-25T16:32:06.917Z,30.90
2023-04-25T16:34:33.765Z,30.80
2023-04-25T16:37:01.349Z,31.30
2023-04-25T16:39:28.216Z,32.00
2023-04-25T16:41:55.302Z,32.40
2023-04-25T16:44:22.111Z,32.60
2023-04-25T16:46:49.076Z,32.30
2023-04-25T16:49:15.866Z,32.40
2023-04-25T16:51:42.752Z,32.30
2023-04-25T16:54:09.525Z,32.40
2023-04-25T16:56:36.225Z,32.60
2023-04-25T16:59:03.007Z,32.60
2023-04-25T17:01:30.197Z,32.60
2023-04-25T17:03:57.247Z,32.70
2023-04-25T17:06:24.759Z,32.60
2023-04-25T17:08:51.908Z,32.90
2023-04-25T17:11:20.150Z,32.80
2023-04-25T17:13:47.019Z,32.50
2023-04-25T17:16:16.653Z,32.50
2023-04-25T17:18:44.166Z,32.90
2023-04-25T17:21:11.061Z,32.20
2023-04-25T17:23:38.054Z,32.00
2023-04-25T17:26:04.934Z,31.80
2023-04-25T17:28:31.604Z,32.40
2023-04-25T17:30:58.591Z,32.50
2023-04-25T17:33:27.080Z,32.50
2023-04-25T17:35:54.421Z,32.30
2023-04-25T17:38:21.700Z,32.60
2023-04-25T17:40:48.443Z,32.20
2023-04-25T17:43:15.275Z,31.10
2023-04-25T17:45:41.949Z,31.30
2023-04-25T17:48:08.694Z,30.70
2023-04-25T17:50:35.621Z,30.80
2023-04-25T17:53:06.016Z,30.70
2023-04-25T17:55:32.797Z,31.00
2023-04-25T17:57:59.534Z,31.00
2023-04-25T18:00:26.259Z,31.00
2023-04-25T18:02:53.147Z,31.00
2023-04-25T18:05:20.034Z,30.90
2023-04-25T18:07:46.819Z,31.00
2023-04-25T18:10:15.185Z,31.30
2023-04-25T18:12:43.393Z,31.10
2023-04-25T18:15:10.460Z,30.70
2023-04-25T18:17:40.260Z,30.60
2023-04-25T18:20:14.878Z,30.50
2023-04-25T18:22:43.162Z,29.50
2023-04-25T18:25:11.130Z,29.50
2023-04-25T18:27:38.930Z,29.80
2023-04-25T18:30:08.886Z,29.90
2023-04-25T18:32:35.867Z,30.00
2023-04-25T18:35:03.332Z,30.10
2023-04-25T18:37:30.169Z,30.20
2023-04-25T18:39:56.933Z,30.10
2023-04-25T18:42:23.618Z,30.10
2023-04-25T18:44:51.058Z,30.20
2023-04-25T18:47:17.950Z,30.40
2023-04-25T18:49:45.620Z,30.60
2023-04-25T18:52:15.015Z,31.00
2023-04-25T18:54:42.544Z,31.40
2023-04-25T18:57:09.480Z,31.80
2023-04-25T18:59:36.403Z,31.60
2023-04-25T19:02:05.217Z,31.50
2023-04-25T19:04:32.631Z,32.00
2023-04-25T19:06:59.735Z,31.90
2023-04-25T19:09:26.561Z,32.30
2023-04-25T19:11:53.393Z,32.70
2023-04-25T19:14:20.355Z,32.90
2023-04-25T19:16:50.194Z,32.70
2023-04-25T19:19:16.960Z,32.80
2023-04-25T19:21:43.832Z,32.70
2023-04-25T19:24:11.420Z,32.70
2023-04-25T19:26:38.497Z,32.60
2023-04-25T19:29:14.372Z,32.40
2023-04-25T19:31:43.056Z,32.50
2023-04-25T19:34:10.339Z,32.20
2023-04-25T19:36:38.764Z,32.50
2023-04-25T19:39:07.390Z,32.20
2023-04-25T19:41:38.392Z,32.40
2023-04-25T19:44:07.756Z,32.40
2023-04-25T19:46:35.934Z,32.70
2023-04-25T19:49:06.040Z,33.40
2023-04-25T19:51:34.090Z,33.10
2023-04-25T19:54:01.000Z,33.30
2023-04-25T19:56:27.914Z,33.30
2023-04-25T19:58:54.943Z,33.40
2023-04-25T20:01:22.428Z,33.50
2023-04-25T20:03:51.797Z,33.50
2023-04-25T20:06:19.188Z,33.70
2023-04-25T20:08:47.176Z,34.00
2023-04-25T20:11:14.041Z,35.10
2023-04-25T20:13:41.071Z,35.10
2023-04-25T20:16:07.957Z,35.50
2023-04-25T20:18:34.906Z,35.60
2023-04-25T20:21:02.318Z,34.80
2023-04-25T20:23:29.070Z,35.60
2023-04-25T20:25:55.881Z,35.70
2023-04-25T20:28:23.228Z,34.80
2023-04-25T20:30:50.633Z,34.70
2023-04-25T20:33:17.445Z,34.80
2023-04-25T20:35:44.317Z,35.60
2023-04-25T20:38:12.059Z,34.90
2023-04-25T20:40:38.858Z,35.70
2023-04-25T20:43:05.700Z,35.90
2023-04-25T20:45:34.297Z,34.90
2023-04-25T20:48:02.539Z,34.80
2023-04-25T20:50:29.527Z,35.60
2023-04-25T20:52:56.273Z,35.60
2023-04-25T20:55:23.184Z,34.80
2023-04-25T20:57:50.405Z,35.10
2023-04-25T21:00:27.144Z,35.90
2023-04-25T21:02:54.653Z,36.10
2023-04-25T21:05:24.675Z,36.10
2023-04-25T21:07:55.014Z,36.30
2023-04-25T21:10:22.099Z,36.50
2023-04-25T21:12:49.955Z,36.50
2023-04-25T21:15:20.130Z,36.30
2023-04-25T21:17:47.718Z,36.60
2023-04-25T21:20:17.712Z,36.60
2023-04-25T21:22:53.890Z,36.60
2023-04-25T21:25:29.161Z,36.60
2023-04-25T21:27:57.058Z,36.60
2023-04-25T21:30:25.849Z,36.40
2023-04-25T21:32:53.527Z,36.00
2023-04-25T21:35:21.790Z,35.10
2023-04-25T21:37:48.668Z,35.10
2023-04-25T21:40:15.727Z,34.90
2023-04-25T21:42:51.446Z,34.90
2023-04-25T21:45:19.759Z,35.10
2023-04-25T21:47:47.794Z,34.70
2023-04-25T21:50:15.100Z,35.10
2023-04-25T21:52:41.978Z,35.10
2023-04-25T21:55:10.580Z,35.20
2023-04-25T21:57:37.413Z,35.30
2023-04-25T22:00:13.836Z,35.50
2023-04-25T22:02:40.973Z,35.40
2023-04-25T22:05:07.829Z,35.70
2023-04-25T22:07:34.665Z,35.50
2023-04-25T22:10:01.382Z,35.80
2023-04-25T22:12:28.562Z,35.80
2023-04-25T22:14:55.324Z,35.80
2023-04-25T22:17:25.758Z,35.70
2023-04-25T22:19:52.601Z,35.70
2023-04-25T22:22:19.307Z,35.80
2023-04-25T22:24:48.105Z,36.10
2023-04-25T22:27:14.826Z,36.00
2023-04-25T22:29:41.735Z,36.20
2023-04-25T22:32:08.833Z,37.20
2023-04-25T22:34:35.930Z,37.40
2023-04-25T22:37:03.326Z,36.40
2023-04-25T22:39:30.471Z,37.30
2023-04-25T22:41:57.894Z,36.60
2023-04-25T22:44:24.582Z,37.50
2023-04-25T22:46:51.265Z,37.50
2023-04-25T22:49:18.102Z,37.70
2023-04-25T22:51:44.775Z,38.10
2023-04-25T22:54:11.465Z,38.30
2023-04-25T22:56:38.124Z,38.90
2023-04-25T22:59:04.890Z,38.40
2023-04-25T23:01:31.853Z,38.30
2023-04-25T23:03:58.819Z,38.40
2023-04-25T23:06:26.465Z,38.50
2023-04-25T23:08:53.641Z,38.70
2023-04-25T23:11:20.596Z,38.90
2023-04-25T23:13:47.438Z,38.60
2023-04-25T23:16:14.145Z,38.80
2023-04-25T23:18:41.014Z,38.80
2023-04-25T23:21:12.065Z,39.10
2023-04-25T23:23:39.851Z,38.80
2023-04-25T23:26:10.921Z,38.70
2023-04-25T23:28:41.502Z,38.90
2023-04-25T23:31:10.255Z,39.20
2023-04-25T23:33:37.200Z,39.30
2023-04-25T23:36:04.320Z,39.50
2023-04-25T23:38:31.776Z,39.30
2023-04-25T23:40:58.504Z,39.60
2023-04-25T23:43:25.262Z,39.70
2023-04-25T23:45:52.068Z,39.80
2023-04-25T23:48:18.843Z,40.00
2023-04-25T23:50:45.649Z,39.90
2023-04-25T23:53:12.396Z,39.80
2023-04-25T23:55:39.195Z,39.80
2023-04-25T23:58:06.473Z,39.90
